Time;durP1;ratioP1;P1;durP2;ratioP2;P2;SDS_P1;SDS_P2;PMS_P1;PMS_P2;Temp;Humidity;BMP_temperature;BMP_pressure;BME280_temperature;BME280_humidity;BME280_pressure;Samples;Min_cycle;Max_cycle;Signal;HPM_P1;HPM_P2
2024/03/23 00:00:14;;;;;;;23.70;4.55;;;;;;;-146.27;84.41;44032.13;5083701;28;20051;-72
2024/03/23 00:02:41;;;;;;;22.58;4.43;;;;;;;-146.27;84.44;44020.19;5082684;28;20034;-72
2024/03/23 00:05:07;;;;;;;26.73;4.18;;;;;;;-146.27;84.41;43998.31;5078342;28;20034;-72
2024/03/23 00:07:33;;;;;;;19.90;5.93;;;;;;;-146.27;84.23;44010.25;5092753;28;20028;-72
2024/03/23 00:10:00;;;;;;;20.98;4.55;;;;;;;-146.27;84.27;44063.97;5087869;28;20024;-72
2024/03/23 00:12:26;;;;;;;19.25;4.05;;;;;;;-146.27;84.20;44085.84;5085457;28;20468;-72
2024/03/23 00:14:53;;;;;;;15.07;4.20;;;;;;;-146.27;84.16;44038.09;5086196;28;20028;-72
2024/03/23 00:17:19;;;;;;;17.75;3.65;;;;;;;-146.27;84.19;44073.91;5077475;28;20024;-72
2024/03/23 00:19:47;;;;;;;18.52;4.60;;;;;;;-146.27;84.37;44032.13;5090159;28;20089;-71
2024/03/23 00:22:13;;;;;;;20.50;4.95;;;;;;;-146.27;84.96;44075.91;5094676;28;20032;-72
2024/03/23 00:24:40;;;;;;;19.88;3.97;;;;;;;-146.27;85.56;44022.19;5085721;28;20040;-72
2024/03/23 00:27:06;;;;;;;16.27;4.40;;;;;;;-146.27;85.70;44042.06;5102838;28;20376;-72
2024/03/23 00:29:33;;;;;;;20.35;4.07;;;;;;;-146.27;85.82;44014.22;5091611;28;20035;-72
2024/03/23 00:31:59;;;;;;;24.33;4.38;;;;;;;-146.27;85.60;44014.22;5090628;28;20081;-73
2024/03/23 00:34:26;;;;;;;22.00;4.22;;;;;;;-146.27;85.42;44050.03;5091331;28;20023;-71
2024/03/23 00:36:52;;;;;;;19.95;3.70;;;;;;;-146.27;85.48;44048.03;5090535;28;20027;-72
2024/03/23 00:39:19;;;;;;;16.58;4.15;;;;;;;-146.27;84.78;44024.16;5089831;28;20024;-72
2024/03/23 00:41:46;;;;;;;18.40;4.80;;;;;;;-146.27;84.51;44063.97;5083596;28;20089;-72
2024/03/23 00:44:13;;;;;;;17.65;4.30;;;;;;;-146.27;84.31;44052.03;5096604;28;20031;-72
2024/03/23 00:46:39;;;;;;;16.58;3.53;;;;;;;-146.27;84.06;44071.91;5093491;28;20036;-72
2024/03/23 00:49:07;;;;;;;30.58;3.45;;;;;;;-146.27;83.90;44101.75;5085847;28;20020;-74
2024/03/23 00:51:33;;;;;;;22.63;4.13;;;;;;;-146.27;83.76;44119.66;5084199;28;20035;-72
2024/03/23 00:53:58;;;;;;;12.32;3.03;;;;;;;-146.27;83.25;44143.53;5078748;28;20018;-71
2024/03/23 00:56:24;;;;;;;17.15;4.07;;;;;;;-146.27;82.65;44201.25;5089534;28;20035;-72
2024/03/23 00:58:50;;;;;;;15.65;2.80;;;;;;;-146.27;81.98;44221.13;5100303;28;20632;-72
2024/03/23 01:01:15;;;;;;;21.27;3.33;;;;;;;-146.27;81.04;44233.06;5090401;28;20106;-71
2024/03/23 01:03:41;;;;;;;15.57;3.17;;;;;;;-146.27;80.60;44264.91;5097540;28;20024;-72
2024/03/23 01:06:06;;;;;;;13.50;3.92;;;;;;;-146.27;80.35;44314.66;5089089;28;20149;-72
2024/03/23 01:08:31;;;;;;;16.83;3.85;;;;;;;-146.27;79.87;44318.63;5091141;28;20032;-72
2024/03/23 01:11:00;;;;;;;11.95;3.58;;;;;;;-146.27;79.09;44382.31;5090713;28;20480;-71
2024/03/23 01:13:27;;;;;;;9.77;2.03;;;;;;;-146.27;78.05;44432.03;5097549;28;20016;-72
2024/03/23 01:15:54;;;;;;;18.30;2.63;;;;;;;-146.27;77.45;44469.84;5092932;28;20054;-72
2024/03/23 01:18:20;;;;;;;13.25;2.72;;;;;;;-146.27;76.79;44537.50;5087581;28;20048;-72
2024/03/23 01:20:46;;;;;;;8.98;2.50;;;;;;;-146.27;76.31;44589.25;5101258;28;20067;-72
2024/03/23 01:23:12;;;;;;;11.60;2.28;;;;;;;-146.27;75.78;44605.16;5089418;28;20066;-72
2024/03/23 01:25:38;;;;;;;13.05;2.45;;;;;;;-146.27;75.53;44635.00;5090441;28;20069;-72
2024/03/23 01:28:04;;;;;;;5.97;1.58;;;;;;;-146.27;74.92;44652.91;5088501;28;20020;-72
2024/03/23 01:30:30;;;;;;;18.58;1.85;;;;;;;-146.27;74.86;44650.94;5091971;28;20051;-75
2024/03/23 01:32:56;;;;;;;10.85;2.03;;;;;;;-146.27;74.88;44680.78;5098000;28;20526;-72
2024/03/23 01:35:21;;;;;;;19.30;2.10;;;;;;;-146.27;74.55;44710.63;5095760;28;20617;-72
2024/03/23 01:37:46;;;;;;;8.07;1.45;;;;;;;-146.27;74.47;44728.53;5090166;28;20102;-73
2024/03/23 01:40:13;;;;;;;14.45;2.00;;;;;;;-146.27;74.50;44742.47;5089681;28;20024;-72
2024/03/23 01:42:39;;;;;;;6.32;1.60;;;;;;;-146.27;74.41;44780.25;5093293;28;20049;-72
2024/03/23 01:45:07;;;;;;;15.07;1.95;;;;;;;-146.27;73.73;44776.28;5080693;28;20546;-72
2024/03/23 01:47:33;;;;;;;15.52;2.50;;;;;;;-146.27;73.14;44806.13;5102153;28;20472;-73
2024/03/23 01:49:59;;;;;;;11.70;1.92;;;;;;;-146.27;73.09;44841.94;5088837;28;20027;-72
2024/03/23 01:52:27;;;;;;;7.97;2.28;;;;;;;-146.27;72.76;44875.78;5093972;28;20699;-72
2024/03/23 01:54:52;;;;;;;18.20;1.83;;;;;;;-146.27;72.51;44891.69;5084464;28;20035;-72
2024/03/23 01:57:17;;;;;;;17.15;1.98;;;;;;;-146.27;72.35;44915.59;5080402;28;20025;-72
2024/03/23 01:59:43;;;;;;;9.10;1.58;;;;;;;-146.27;72.40;44913.59;5087360;28;20024;-72
2024/03/23 02:02:08;;;;;;;7.75;1.23;;;;;;;-146.27;72.41;44937.47;5087553;28;20399;-71
2024/03/23 02:04:33;;;;;;;12.27;2.20;;;;;;;-146.27;72.26;44923.53;5080028;28;20024;-72
2024/03/23 02:06:59;;;;;;;21.50;2.38;;;;;;;-146.27;72.87;44915.59;5078207;28;20784;-72
2024/03/23 02:09:25;;;;;;;10.82;1.75;;;;;;;-146.27;72.79;44935.47;5088474;28;20464;-71
2024/03/23 02:11:50;;;;;;;13.57;1.92;;;;;;;-146.27;72.68;44913.59;5087540;28;20403;-71
2024/03/23 02:14:15;;;;;;;10.77;1.70;;;;;;;-146.27;72.81;44903.66;5082597;28;20035;-71
2024/03/23 02:16:41;;;;;;;7.32;1.60;;;;;;;-146.27;73.09;44931.50;5091563;28;20073;-72
2024/03/23 02:19:06;;;;;;;13.75;2.28;;;;;;;-146.27;72.93;44959.38;5100783;28;20046;-71
2024/03/23 02:21:32;;;;;;;8.07;2.22;;;;;;;-146.27;73.29;44959.38;5089717;28;20032;-74
2024/03/23 02:23:59;;;;;;;16.45;2.17;;;;;;;-146.27;73.22;44939.47;5090730;28;20051;-71
2024/03/23 02:26:24;;;;;;;13.25;2.28;;;;;;;-146.27;72.83;44951.41;5088584;28;20052;-72
2024/03/23 02:28:50;;;;;;;9.90;1.77;;;;;;;-146.27;72.99;44979.25;5095172;28;20042;-72
2024/03/23 02:31:15;;;;;;;13.02;1.70;;;;;;;-146.27;73.34;44995.19;5096411;28;20460;-71
2024/03/23 02:33:41;;;;;;;16.58;2.25;;;;;;;-146.27;73.04;44951.41;5085166;28;20649;-72
2024/03/23 02:36:07;;;;;;;15.10;1.95;;;;;;;-146.27;73.22;44987.22;5089839;28;20480;-72
2024/03/23 02:38:32;;;;;;;10.20;1.88;;;;;;;-146.27;72.99;44953.38;5087190;28;20506;-72
2024/03/23 02:41:04;;;;;;;13.40;1.67;;;;;;;-146.27;73.46;44955.38;5089486;28;20056;-72
2024/03/23 02:43:30;;;;;;;10.05;2.25;;;;;;;-146.27;73.22;45007.13;5095018;28;20059;-72
2024/03/23 02:45:55;;;;;;;15.98;1.67;;;;;;;-146.27;73.18;45009.13;5099367;28;20068;-72
2024/03/23 02:48:20;;;;;;;7.43;1.80;;;;;;;-146.27;73.32;45027.03;5093421;28;20029;-72
2024/03/23 02:50:46;;;;;;;13.30;2.17;;;;;;;-146.27;73.26;44983.25;5103516;28;20050;-72
2024/03/23 02:53:11;;;;;;;14.50;1.80;;;;;;;-146.27;72.97;45007.13;5090837;28;20027;-72
2024/03/23 02:55:36;;;;;;;8.30;1.65;;;;;;;-146.27;73.04;44991.19;5088846;28;20031;-72
2024/03/23 02:58:02;;;;;;;12.90;2.35;;;;;;;-146.27;73.70;44971.31;5104840;28;20635;-72
2024/03/23 03:00:28;;;;;;;14.07;2.10;;;;;;;-146.27;73.89;44977.28;5093110;28;20024;-72
2024/03/23 03:02:53;;;;;;;12.85;1.67;;;;;;;-146.27;73.55;44991.19;5088276;28;20032;-72
2024/03/23 03:05:19;;;;;;;9.20;1.23;;;;;;;-146.27;73.37;44967.31;5087132;28;20100;-72
2024/03/23 03:07:44;;;;;;;12.40;1.85;;;;;;;-146.27;73.37;44999.16;5102722;28;20035;-72
2024/03/23 03:10:11;;;;;;;11.07;1.50;;;;;;;-146.27;72.88;44999.16;5090556;28;20027;-72
2024/03/23 03:12:37;;;;;;;10.20;1.55;;;;;;;-146.27;72.97;45019.06;5100536;28;20365;-72
2024/03/23 03:15:04;;;;;;;10.95;2.03;;;;;;;-146.27;72.37;45019.06;5077809;28;20023;-72
2024/03/23 03:17:30;;;;;;;7.95;1.27;;;;;;;-146.27;72.16;45005.13;5091252;28;20028;-71
2024/03/23 03:19:55;;;;;;;15.38;1.83;;;;;;;-146.27;72.15;44995.19;5090712;28;20115;-71
2024/03/23 03:22:24;;;;;;;3.60;1.10;;;;;;;-146.27;72.41;45064.84;5100038;28;20035;-72
2024/03/23 03:24:49;;;;;;;16.50;1.77;;;;;;;-146.27;71.92;45027.03;5093646;28;20031;-71
2024/03/23 03:27:14;;;;;;;11.27;1.58;;;;;;;-146.27;72.43;45058.88;5091437;28;20036;-71
2024/03/23 03:29:40;;;;;;;10.32;1.50;;;;;;;-146.27;72.30;45046.94;5101739;28;20424;-71
2024/03/23 03:32:05;;;;;;;12.82;1.60;;;;;;;-146.27;72.35;45082.75;5098516;28;20100;-72
2024/03/23 03:34:31;;;;;;;8.57;1.60;;;;;;;-146.27;72.35;45070.81;5079418;28;20028;-71
2024/03/23 03:36:57;;;;;;;9.27;1.58;;;;;;;-146.27;71.88;45046.94;5086542;28;20085;-72
2024/03/23 03:39:23;;;;;;;11.25;1.50;;;;;;;-146.27;71.84;45066.81;5088042;28;20020;-72
2024/03/23 03:41:49;;;;;;;10.07;1.60;;;;;;;-146.27;71.48;45092.69;5089013;28;20031;-70
2024/03/23 03:44:14;;;;;;;14.82;1.83;;;;;;;-146.27;71.05;45062.84;5090431;28;20016;-72
2024/03/23 03:46:39;;;;;;;8.00;1.20;;;;;;;-146.27;71.20;45122.53;5092891;28;20024;-72
2024/03/23 03:49:05;;;;;;;9.43;1.38;;;;;;;-146.27;70.76;45122.53;5090528;28;20682;-71
2024/03/23 03:51:30;;;;;;;10.07;1.60;;;;;;;-146.27;71.09;45102.66;5087875;28;20607;-72
2024/03/23 03:53:57;;;;;;;8.50;1.40;;;;;;;-146.27;70.70;45108.63;5100631;28;20031;-72
2024/03/23 03:56:22;;;;;;;4.93;1.30;;;;;;;-146.27;70.54;45138.47;5090284;28;20051;-71
2024/03/23 03:58:48;;;;;;;9.38;1.77;;;;;;;-146.27;70.86;45142.44;5081135;28;20056;-72
2024/03/23 04:01:16;;;;;;;16.55;2.22;;;;;;;-146.27;70.78;45150.41;5088483;28;20111;-72
2024/03/23 04:03:43;;;;;;;5.45;1.00;;;;;;;-146.27;70.71;45126.53;5081208;28;20411;-72
2024/03/23 04:06:09;;;;;;;11.50;1.35;;;;;;;-146.27;70.38;45106.63;5081645;28;20086;-72
2024/03/23 04:08:35;;;;;;;8.95;1.00;;;;;;;-146.27;71.03;45178.28;5089509;28;20512;-72
2024/03/23 04:11:01;;;;;;;9.10;1.58;;;;;;;-146.27;70.92;45152.41;5085566;28;20035;-71
2024/03/23 04:13:26;;;;;;;11.85;1.23;;;;;;;-146.27;70.46;45142.44;5090429;28;20024;-72
2024/03/23 04:15:55;;;;;;;11.45;1.80;;;;;;;-146.27;70.48;45140.47;5088134;28;20037;-71
2024/03/23 04:18:21;;;;;;;10.20;1.42;;;;;;;-146.27;70.57;45134.50;5089000;28;20035;-72
2024/03/23 04:20:47;;;;;;;7.60;1.35;;;;;;;-146.27;70.96;45150.41;5088907;28;20024;-72
2024/03/23 04:23:12;;;;;;;11.75;1.88;;;;;;;-146.27;71.75;45164.34;5103537;28;20549;-72
2024/03/23 04:25:38;;;;;;;10.43;1.48;;;;;;;-146.27;71.64;45124.53;5092264;28;20208;-72
2024/03/23 04:28:04;;;;;;;6.93;2.83;;;;;;;-146.27;71.69;45108.63;5083075;28;20468;-72
2024/03/23 04:30:30;;;;;;;12.43;2.08;;;;;;;-146.27;72.79;45132.50;5087933;28;20432;-72
2024/03/23 04:32:56;;;;;;;4.68;1.27;;;;;;;-146.27;72.12;45118.56;5091698;28;20099;-72
2024/03/23 04:35:25;;;;;;;7.82;1.95;;;;;;;-146.27;72.51;45166.31;5074432;28;20032;-72
2024/03/23 04:37:51;;;;;;;8.65;1.90;;;;;;;-146.27;72.41;45168.31;5094134;28;20034;-72
2024/03/23 04:40:17;;;;;;;11.90;1.98;;;;;;;-146.27;72.10;45142.44;5089142;28;20032;-72
2024/03/23 04:42:42;;;;;;;10.10;1.60;;;;;;;-146.27;71.25;45158.38;5092002;28;20109;-72
2024/03/23 04:45:08;;;;;;;12.80;1.70;;;;;;;-146.27;71.76;45158.38;5084519;28;20115;-72
2024/03/23 04:47:35;;;;;;;10.57;2.10;;;;;;;-146.27;71.77;45166.31;5093116;28;20085;-71
2024/03/23 04:50:01;;;;;;;12.15;1.95;;;;;;;-146.27;72.12;45136.47;5079111;28;20020;-72
2024/03/23 04:52:27;;;;;;;12.32;2.28;;;;;;;-146.27;72.37;45158.38;5086529;28;20066;-72
2024/03/23 04:54:52;;;;;;;9.88;2.17;;;;;;;-146.27;72.63;45102.66;5075196;28;20047;-71
2024/03/23 04:57:17;;;;;;;12.63;1.95;;;;;;;-146.27;72.26;45084.72;5088743;28;20023;-72
2024/03/23 04:59:43;;;;;;;16.00;1.95;;;;;;;-146.27;72.51;45098.66;5083629;28;20021;-71
2024/03/23 05:02:09;;;;;;;10.88;2.35;;;;;;;-146.27;73.28;45086.72;5074616;28;20034;-71
2024/03/23 05:04:36;;;;;;;10.90;1.90;;;;;;;-146.27;73.43;45070.81;5075945;28;20446;-72
2024/03/23 05:07:02;;;;;;;7.80;1.63;;;;;;;-146.27;73.86;45060.84;5099715;28;20022;-71
2024/03/23 05:09:29;;;;;;;8.93;2.00;;;;;;;-146.27;73.65;45023.03;5090967;28;20028;-71
2024/03/23 05:11:55;;;;;;;11.90;2.05;;;;;;;-146.27;73.44;45027.03;5090710;28;20479;-71
2024/03/23 05:14:21;;;;;;;18.35;1.90;;;;;;;-146.27;73.83;45031.00;5091458;28;20119;-70
2024/03/23 05:16:46;;;;;;;10.85;1.90;;;;;;;-146.27;74.23;45070.81;5086198;28;20035;-71
2024/03/23 05:19:11;;;;;;;13.35;1.85;;;;;;;-146.27;73.74;45066.81;5099878;28;20047;-71
2024/03/23 05:21:36;;;;;;;7.97;1.60;;;;;;;-146.27;74.01;45074.78;5086783;28;20089;-71
2024/03/23 05:24:02;;;;;;;12.82;2.58;;;;;;;-146.27;73.17;45027.03;5095763;28;20039;-71
2024/03/23 05:26:28;;;;;;;16.77;2.75;;;;;;;-146.27;72.72;45062.84;5091745;28;20046;-72
2024/03/23 05:28:54;;;;;;;8.82;1.95;;;;;;;-146.27;72.94;45096.69;5091095;28;20024;-71
2024/03/23 05:31:26;;;;;;;8.38;2.03;;;;;;;-146.27;72.13;45066.81;5098709;28;20106;-71
2024/03/23 05:33:53;;;;;;;10.52;1.63;;;;;;;-146.27;72.02;45090.72;5100988;28;20093;-72
2024/03/23 05:36:18;;;;;;;15.45;1.65;;;;;;;-146.27;72.41;45078.75;5096315;28;20055;-71
2024/03/23 05:38:44;;;;;;;16.42;1.70;;;;;;;-146.27;72.09;45102.66;5096845;28;20107;-71
2024/03/23 05:41:10;;;;;;;17.27;2.30;;;;;;;-146.27;72.79;45094.69;5088473;28;20060;-72
2024/03/23 05:43:35;;;;;;;13.13;2.40;;;;;;;-146.27;72.92;45098.66;5078411;28;20031;-73
2024/03/23 05:46:05;;;;;;;10.15;2.10;;;;;;;-146.27;73.09;45124.53;5091377;28;20055;-73
2024/03/23 05:48:31;;;;;;;7.60;1.85;;;;;;;-146.27;73.56;45140.47;5081798;28;20024;-73
2024/03/23 05:50:57;;;;;;;13.90;2.25;;;;;;;-146.27;74.10;45122.53;5083436;28;20495;-72
2024/03/23 05:53:24;;;;;;;7.38;1.90;;;;;;;-146.27;74.09;45188.22;5085797;28;20036;-71
2024/03/23 05:55:53;;;;;;;17.02;2.53;;;;;;;-146.27;73.35;45174.28;5089952;28;20027;-73
2024/03/23 05:58:20;;;;;;;12.90;2.47;;;;;;;-146.27;73.08;45160.34;5089762;28;20475;-70
2024/03/23 06:00:45;;;;;;;5.55;2.00;;;;;;;-146.27;73.12;45214.09;5089533;28;20028;-70
2024/03/23 06:03:11;;;;;;;13.98;2.28;;;;;;;-146.27;73.26;45241.94;5089291;28;20032;-70
2024/03/23 06:05:37;;;;;;;15.43;2.33;;;;;;;-146.27;73.16;45277.78;5085956;28;20016;-72
2024/03/23 06:08:03;;;;;;;23.45;2.13;;;;;;;-146.27;73.62;45305.63;5088020;28;20028;-72
2024/03/23 06:10:28;;;;;;;7.95;1.55;;;;;;;-146.27;74.27;45369.31;5088900;28;20020;-72
2024/03/23 06:12:54;;;;;;;10.55;2.08;;;;;;;-146.27;74.23;45341.47;5089991;28;20047;-73
2024/03/23 06:15:20;;;;;;;12.50;1.98;;;;;;;-146.27;74.25;45379.28;5084624;28;20021;-72
2024/03/23 06:17:45;;;;;;;11.15;2.35;;;;;;;-146.27;73.85;45333.50;5086264;28;20024;-72
2024/03/23 06:20:11;;;;;;;12.60;2.38;;;;;;;-146.27;73.56;45325.53;5089258;28;20035;-73
2024/03/23 06:22:37;;;;;;;6.53;1.80;;;;;;;-146.27;73.94;45448.94;5081053;28;20077;-72
2024/03/23 06:25:02;;;;;;;8.60;1.50;;;;;;;-146.27;73.44;45488.75;5084079;28;20024;-72
2024/03/23 06:27:28;;;;;;;10.55;2.58;;;;;;;-146.27;72.52;45454.91;5103165;28;20124;-72
2024/03/23 06:29:54;;;;;;;7.65;1.63;;;;;;;-146.27;72.41;45504.66;5089300;28;20012;-72
2024/03/23 06:32:21;;;;;;;9.38;1.55;;;;;;;-146.27;73.07;45540.50;5096735;27;20089;-72
2024/03/23 06:34:46;;;;;;;7.93;2.10;;;;;;;-146.27;73.00;45552.44;5090344;28;20028;-72
2024/03/23 06:37:11;;;;;;;9.07;2.20;;;;;;;-146.27;72.79;45512.63;5089567;28;20035;-72
2024/03/23 06:39:38;;;;;;;10.77;1.60;;;;;;;-146.27;72.27;45506.66;5093214;28;20032;-72
2024/03/23 06:42:03;;;;;;;6.85;2.05;;;;;;;-146.27;72.87;45546.47;5087551;28;20066;-73
2024/03/23 06:44:29;;;;;;;11.32;1.70;;;;;;;-146.27;73.02;45588.25;5089031;28;20028;-72
2024/03/23 06:46:55;;;;;;;10.82;1.95;;;;;;;-146.27;72.27;45582.28;5087709;28;20071;-72
2024/03/23 06:49:22;;;;;;;6.28;1.50;;;;;;;-146.27;72.25;45618.09;5089702;28;20012;-72
2024/03/23 06:51:47;;;;;;;8.88;2.05;;;;;;;-146.27;71.76;45580.28;5087976;28;20068;-70
2024/03/23 06:54:16;;;;;;;7.28;1.40;;;;;;;-146.27;72.24;45544.47;5092384;28;20053;-71
2024/03/23 06:56:44;;;;;;;16.30;1.50;;;;;;;-146.27;73.53;45586.25;5078225;28;20093;-71
2024/03/23 06:59:09;;;;;;;12.70;2.47;;;;;;;-146.27;72.91;45586.25;5070711;28;20056;-72
2024/03/23 07:01:35;;;;;;;7.03;2.08;;;;;;;-146.27;72.82;45628.06;5090349;28;20024;-70
2024/03/23 07:04:00;;;;;;;11.43;2.38;;;;;;;-146.27;72.51;45572.34;5090441;28;20019;-71
2024/03/23 07:06:25;;;;;;;15.18;2.20;;;;;;;-146.27;71.67;45520.59;5091668;28;20024;-71
2024/03/23 07:08:52;;;;;;;12.18;1.67;;;;;;;-146.27;71.68;45554.41;5091350;28;20028;-72
2024/03/23 07:11:22;;;;;;;14.98;2.40;;;;;;;-146.27;71.87;45560.38;5090512;28;20027;-71
2024/03/23 07:13:50;;;;;;;8.43;2.22;;;;;;;-146.27;71.59;45584.28;5088273;28;20161;-71
2024/03/23 07:16:16;;;;;;;7.40;1.83;;;;;;;-146.27;71.63;45604.19;5090647;28;20032;-70
2024/03/23 07:18:41;;;;;;;10.32;2.00;;;;;;;-146.27;71.99;45675.81;5087526;28;20105;-69
2024/03/23 07:21:07;;;;;;;12.02;1.85;;;;;;;-146.27;71.38;45651.94;5090136;28;20031;-70
2024/03/23 07:23:32;;;;;;;7.70;1.58;;;;;;;-146.27;71.03;45669.84;5090473;28;20035;-69
2024/03/23 07:25:59;;;;;;;8.90;1.77;;;;;;;-146.27;70.86;45600.19;5096885;28;20050;-70
2024/03/23 07:28:24;;;;;;;10.02;2.97;;;;;;;-146.27;71.33;45572.34;5091234;28;20028;-70
2024/03/23 07:31:03;;;;;;;12.82;2.25;;;;;;;-146.27;71.15;45588.25;5093162;28;20024;-70
2024/03/23 07:33:28;;;;;;;7.88;1.92;;;;;;;-146.27;70.84;45616.13;5088019;28;20793;-70
2024/03/23 07:35:54;;;;;;;11.50;1.65;;;;;;;-146.27;70.21;45586.25;5083874;28;20149;-70
2024/03/23 07:38:19;;;;;;;8.25;2.00;;;;;;;-146.27;70.09;45572.34;5089970;28;20479;-72
2024/03/23 07:40:45;;;;;;;6.78;1.48;;;;;;;-146.27;70.43;45596.22;5088876;28;20027;-70
2024/03/23 07:43:10;;;;;;;10.23;2.40;;;;;;;-146.27;70.30;45638.00;5088888;28;20549;-71
2024/03/23 07:45:37;;;;;;;10.57;1.77;;;;;;;-146.27;69.61;45697.72;5090019;28;20031;-71
2024/03/23 07:48:03;;;;;;;6.00;2.35;;;;;;;-146.27;69.94;45711.66;5098117;28;20410;-70
2024/03/23 07:50:28;;;;;;;8.80;1.35;;;;;;;-146.27;69.75;45683.78;5082156;28;20024;-70
2024/03/23 07:52:53;;;;;;;6.97;1.38;;;;;;;-146.27;68.91;45675.81;5084152;28;20016;-71
2024/03/23 07:55:19;;;;;;;8.60;1.50;;;;;;;-146.27;68.70;45677.81;5089575;28;20035;-70
2024/03/23 07:57:44;;;;;;;12.93;1.60;;;;;;;-146.27;68.08;45719.63;5090713;28;20085;-70
2024/03/23 08:00:10;;;;;;;5.03;1.52;;;;;;;-146.27;68.54;45747.47;5070163;28;20029;-70
2024/03/23 08:02:35;;;;;;;13.52;1.85;;;;;;;-146.27;68.30;45628.06;5084732;28;20385;-70
2024/03/23 08:05:01;;;;;;;6.93;1.52;;;;;;;-146.27;67.06;45675.81;5087988;28;20028;-71
2024/03/23 08:07:26;;;;;;;12.20;1.25;;;;;;;-146.27;66.69;45671.84;5090061;28;20024;-72
2024/03/23 08:09:51;;;;;;;7.47;1.45;;;;;;;-146.27;67.31;45713.66;5090174;28;20051;-71
2024/03/23 08:12:17;;;;;;;13.10;1.95;;;;;;;-146.27;68.44;45651.94;5093952;28;20047;-71
2024/03/23 08:14:42;;;;;;;16.77;2.35;;;;;;;-146.27;68.18;45649.94;5090067;28;20118;-72
2024/03/23 08:17:08;;;;;;;12.35;1.88;;;;;;;-146.27;69.65;45689.75;5084791;28;20447;-72
2024/03/23 08:19:33;;;;;;;9.43;1.75;;;;;;;-146.27;68.96;45663.88;5085798;28;20027;-72
2024/03/23 08:21:58;;;;;;;11.25;2.83;;;;;;;-146.27;68.99;45709.66;5088698;28;20040;-72
2024/03/23 08:24:24;;;;;;;11.93;2.22;;;;;;;-146.27;68.41;45699.72;5089489;28;20016;-72
2024/03/23 08:26:49;;;;;;;14.98;2.50;;;;;;;-146.27;67.94;45723.59;5089773;28;20496;-72
2024/03/23 08:29:14;;;;;;;10.55;2.40;;;;;;;-146.27;67.77;45673.84;5090156;28;20024;-71
2024/03/23 08:31:40;;;;;;;7.10;1.48;;;;;;;-146.27;67.31;45640.00;5087653;28;20061;-72
2024/03/23 08:34:05;;;;;;;11.93;2.15;;;;;;;-146.27;66.64;45657.91;5089433;28;20059;-71
2024/03/23 08:36:30;;;;;;;9.27;2.10;;;;;;;-146.27;66.80;45759.44;5079786;28;20424;-71
2024/03/23 08:38:56;;;;;;;15.82;2.25;;;;;;;-146.27;66.53;45727.56;5089567;28;20036;-71
2024/03/23 08:41:21;;;;;;;12.27;2.05;;;;;;;-146.27;66.53;45767.38;5093458;28;20383;-71
2024/03/23 08:43:47;;;;;;;18.95;2.85;;;;;;;-146.27;67.26;45759.44;5093346;28;20077;-72
2024/03/23 08:46:15;;;;;;;7.78;1.65;;;;;;;-146.27;66.79;45707.69;5089144;28;20022;-71
2024/03/23 08:48:45;;;;;;;11.65;1.60;;;;;;;-146.27;66.81;45677.81;5092743;28;20031;-71
2024/03/23 08:51:12;;;;;;;15.02;1.67;;;;;;;-146.27;66.89;45689.75;5091420;28;20103;-71
2024/03/23 08:53:38;;;;;;;14.30;2.05;;;;;;;-146.27;67.74;45743.50;5091639;28;20036;-71
2024/03/23 08:56:08;;;;;;;10.82;1.90;;;;;;;-146.27;67.25;45707.69;5092735;28;20028;-71
2024/03/23 08:58:35;;;;;;;11.25;1.58;;;;;;;-146.27;65.90;45775.34;5092852;28;20039;-73
2024/03/23 09:01:10;;;;;;;15.35;1.83;;;;;;;-146.27;65.62;45803.22;5086792;28;20547;-71
2024/03/23 09:03:37;;;;;;;10.95;1.83;;;;;;;-146.27;65.57;45807.19;5092398;28;20606;-70
2024/03/23 09:06:07;;;;;;;14.07;2.33;;;;;;;-146.27;65.31;45779.31;5089644;28;20023;-72
2024/03/23 09:08:32;;;;;;;8.23;1.95;;;;;;;-146.27;65.45;45797.25;5092706;28;20039;-72
2024/03/23 09:10:57;;;;;;;9.63;1.58;;;;;;;-146.27;64.62;45767.38;5092520;28;20266;-71
2024/03/23 09:13:23;;;;;;;5.75;1.08;;;;;;;-146.27;64.94;45799.22;5097529;28;20479;-71
2024/03/23 09:15:50;;;;;;;14.50;1.70;;;;;;;-146.27;64.30;45795.25;5097806;28;20115;-73
2024/03/23 09:18:15;;;;;;;14.40;2.60;;;;;;;-146.27;63.27;45787.28;5091427;28;20024;-73
2024/03/23 09:20:41;;;;;;;12.23;1.90;;;;;;;-146.27;62.47;45827.09;5088314;28;20032;-74
2024/03/23 09:23:06;;;;;;;12.93;1.95;;;;;;;-146.27;62.48;45874.88;5098266;28;20020;-74
2024/03/23 09:25:32;;;;;;;14.38;1.55;;;;;;;-146.27;61.91;45862.94;5092480;28;20051;-74
2024/03/23 09:27:58;;;;;;;10.60;1.55;;;;;;;-146.27;61.90;45856.97;5091772;28;20031;-73
2024/03/23 09:30:23;;;;;;;13.38;1.77;;;;;;;-146.27;61.82;45862.94;5091956;28;20081;-74
2024/03/23 09:32:49;;;;;;;11.23;1.98;;;;;;;-146.27;60.49;45866.91;5092033;28;20024;-72
2024/03/23 09:35:14;;;;;;;8.40;1.65;;;;;;;-146.27;59.89;45902.75;5084717;28;20031;-72
2024/03/23 09:37:42;;;;;;;10.88;2.35;;;;;;;-146.27;59.76;45868.91;5088536;28;20028;-72
2024/03/23 09:40:13;;;;;;;11.05;1.75;;;;;;;-146.27;59.14;45862.94;5091563;28;20016;-74
2024/03/23 09:42:40;;;;;;;10.23;1.60;;;;;;;-146.27;59.79;45831.09;5088697;28;20032;-74
2024/03/23 09:45:06;;;;;;;13.07;2.47;;;;;;;-146.27;59.53;45831.09;5098087;28;20475;-74
2024/03/23 09:47:32;;;;;;;11.85;1.20;;;;;;;-146.27;60.49;45775.34;5110539;28;20122;-73
2024/03/23 09:49:58;;;;;;;13.73;1.90;;;;;;;-146.27;61.31;45775.34;5091920;28;20016;-74
2024/03/23 09:52:23;;;;;;;5.00;1.40;;;;;;;-146.27;65.38;45799.22;5088764;28;20408;-74
2024/03/23 09:54:49;;;;;;;8.57;1.40;;;;;;;-146.27;65.87;45821.13;5086864;28;20074;-74
2024/03/23 09:57:14;;;;;;;7.72;1.77;;;;;;;-146.27;65.26;45860.94;5089313;28;20032;-73
2024/03/23 09:59:39;;;;;;;10.18;1.70;;;;;;;-146.27;67.84;45823.13;5091237;28;20016;-73
2024/03/23 10:02:05;;;;;;;15.40;1.83;;;;;;;-146.27;68.47;45797.25;5092867;28;20103;-75
2024/03/23 10:04:38;;;;;;;12.05;1.75;;;;;;;-146.27;66.88;45827.09;5090360;28;20028;-73
2024/03/23 10:07:12;;;;;;;8.52;1.73;;;;;;;-146.27;66.38;45850.97;5089554;28;20039;-73
2024/03/23 10:09:38;;;;;;;9.43;1.52;;;;;;;-146.27;65.51;45821.13;5090183;28;20111;-73
2024/03/23 10:12:13;;;;;;;10.82;1.35;;;;;;;-146.27;66.28;45813.16;5083440;28;20107;-74
2024/03/23 10:14:38;;;;;;;8.50;1.58;;;;;;;-146.27;65.80;45783.31;5090721;28;20031;-74
2024/03/23 10:17:19;;;;;;;12.00;2.53;;;;;;;-146.27;64.77;45886.81;5089801;28;20032;-75
2024/03/23 10:19:45;;;;;;;12.63;1.65;;;;;;;-146.27;64.75;45886.81;5089536;28;20032;-74
2024/03/23 10:22:14;;;;;;;17.60;1.70;;;;;;;-146.27;65.08;45918.66;5087791;28;20027;-74
2024/03/23 10:24:39;;;;;;;10.85;1.50;;;;;;;-146.27;63.80;45771.38;5091310;28;20043;-73
2024/03/23 10:27:04;;;;;;;10.18;1.90;;;;;;;-146.27;61.38;45835.06;5090000;28;20040;-73
2024/03/23 10:29:30;;;;;;;11.07;1.88;;;;;;;-146.27;58.22;45920.66;5089298;28;20035;-73
2024/03/23 10:32:11;;;;;;;11.63;1.63;;;;;;;-146.27;58.20;45821.13;5091216;28;20111;-72
2024/03/23 10:34:37;;;;;;;12.63;2.13;;;;;;;-146.27;58.06;45918.66;5089731;28;20028;-74
2024/03/23 10:37:03;;;;;;;7.10;1.27;;;;;;;-146.27;56.62;46022.16;5089136;28;20032;-74
2024/03/23 10:39:34;;;;;;;8.95;1.63;;;;;;;-146.27;59.11;46065.97;5085263;28;20024;-74
2024/03/23 10:42:02;;;;;;;14.50;2.05;;;;;;;-146.27;58.97;45952.50;5087146;28;20512;-72
2024/03/23 10:44:30;;;;;;;14.68;1.80;;;;;;;-146.27;59.77;45936.56;5090884;28;20051;-72
2024/03/23 10:46:58;;;;;;;13.00;2.33;;;;;;;-146.27;59.08;45966.44;5094006;28;20024;-73
2024/03/23 10:49:30;;;;;;;14.75;2.13;;;;;;;-146.27;59.50;45970.41;5095957;28;20035;-73
2024/03/23 10:52:00;;;;;;;14.70;1.92;;;;;;;-146.27;59.70;45950.50;5089235;28;20035;-74
2024/03/23 10:54:26;;;;;;;11.27;1.60;;;;;;;-146.27;58.81;45954.50;5092751;28;20031;-74
2024/03/23 10:56:59;;;;;;;7.25;1.42;;;;;;;-146.27;60.23;45988.31;5097283;28;20032;-75
2024/03/23 10:59:26;;;;;;;10.05;1.73;;;;;;;-146.27;61.05;46018.19;5102276;28;20023;-75
2024/03/23 11:01:59;;;;;;;11.30;2.25;;;;;;;-146.27;61.41;46073.91;5083302;28;20063;-75
2024/03/23 11:04:35;;;;;;;9.15;1.85;;;;;;;-146.27;60.63;45966.44;5088140;28;20032;-73
2024/03/23 11:07:24;;;;;;;8.80;2.17;;;;;;;-146.27;58.15;45866.91;5089362;28;20032;-73